Time;durP1;ratioP1;P1;durP2;ratioP2;P2;SDS_P1;SDS_P2;PMS_P1;PMS_P2;Temp;Humidity;BMP_temperature;BMP_pressure;BME280_temperature;BME280_humidity;BME280_pressure;Samples;Min_cycle;Max_cycle;Signal;HPM_P1;HPM_P2
2022/08/24 00:02:01;;;;;;;8.60;7.70;;;17.40;99.90;;;-141.84;78.54;19785.38;4742283;30;20244;-59
2022/08/24 00:04:29;;;;;;;8.48;7.40;;;17.40;99.90;;;-141.84;78.55;19761.00;4751796;30;20236;-60
2022/08/24 00:06:59;;;;;;;10.88;7.40;;;17.40;99.90;;;-141.84;78.43;19785.38;4751492;30;20747;-60
2022/08/24 00:09:28;;;;;;;8.25;7.18;;;17.40;99.90;;;-141.84;78.78;19765.06;4751377;29;20212;-60
2022/08/24 00:11:57;;;;;;;8.07;7.07;;;17.40;99.90;;;-141.84;79.00;19722.38;4751989;30;20580;-61
2022/08/24 00:14:25;;;;;;;7.88;7.03;;;17.40;99.90;;;-141.84;78.98;19756.94;4735670;30;20237;-60
2022/08/24 00:16:53;;;;;;;7.75;7.05;;;17.40;99.90;;;-141.84;78.68;19716.28;4733508;30;20722;-59
2022/08/24 00:19:24;;;;;;;9.18;7.05;;;17.40;99.90;;;-141.84;79.08;19742.72;4733450;30;20240;-60
2022/08/24 00:21:52;;;;;;;7.97;7.13;;;17.40;99.90;;;-141.84;79.49;19663.44;4733523;30;20327;-59
2022/08/24 00:24:21;;;;;;;9.85;6.93;;;17.40;99.90;;;-141.84;79.91;19671.56;4733337;30;20217;-60
2022/08/24 00:26:49;;;;;;;8.40;7.55;;;17.30;99.90;;;-141.84;80.12;19663.44;4733799;30;20223;-59
2022/08/24 00:29:18;;;;;;;8.02;7.10;;;17.30;99.90;;;-141.84;80.25;19651.25;4733242;30;20733;-59
2022/08/24 00:31:47;;;;;;;7.55;6.82;;;17.20;99.90;;;-141.84;80.39;19635.00;4741307;30;20753;-60
2022/08/24 00:34:16;;;;;;;7.55;6.85;;;17.20;99.90;;;-141.84;80.46;19614.66;4750980;29;20244;-61
2022/08/24 00:36:46;;;;;;;7.85;7.15;;;17.20;99.90;;;-141.84;80.85;19582.16;4751120;30;20242;-59
2022/08/24 00:39:14;;;;;;;8.85;7.63;;;17.20;99.90;;;-141.84;80.65;19628.91;4751041;30;20220;-60
2022/08/24 00:41:47;;;;;;;7.93;6.88;;;17.20;99.90;;;-141.84;80.48;19598.41;4750878;29;20246;-59
2022/08/24 00:44:17;;;;;;;8.57;7.75;;;17.20;99.90;;;-141.84;80.78;19588.25;4736607;30;20247;-59
2022/08/24 00:46:53;;;;;;;7.82;7.03;;;17.20;99.90;;;-141.84;80.89;19545.56;4733188;30;20333;-60
2022/08/24 00:49:33;;;;;;;8.00;7.20;;;17.20;99.90;;;-141.84;80.77;19626.88;4732725;29;20761;-61
2022/08/24 00:52:09;;;;;;;9.43;7.78;;;17.20;99.90;;;-141.84;80.71;19574.03;4733165;30;20323;-60
2022/08/24 00:54:44;;;;;;;8.73;7.80;;;17.20;99.90;;;-141.84;80.65;19541.50;4732726;30;20746;-60
2022/08/24 00:57:19;;;;;;;8.38;7.60;;;17.20;99.90;;;-141.84;81.05;19519.16;4733583;30;20268;-60
2022/08/24 00:59:55;;;;;;;7.85;7.15;;;17.20;99.90;;;-141.84;81.27;19527.28;4733206;30;20233;-59
2022/08/24 01:02:30;;;;;;;9.15;7.90;;;17.20;99.90;;;-141.84;80.44;19582.16;4745366;30;20323;-60
2022/08/24 01:05:04;;;;;;;8.07;7.35;;;17.20;99.90;;;-141.84;79.95;19588.25;4750355;30;20250;-60
2022/08/24 01:07:38;;;;;;;8.85;7.95;;;17.20;99.90;;;-141.84;79.75;19565.91;4750736;30;20252;-59
2022/08/24 01:10:12;;;;;;;8.63;7.50;;;17.20;99.90;;;-141.84;79.37;19561.84;4750417;29;20389;-60
2022/08/24 01:12:47;;;;;;;8.90;8.00;;;17.20;99.90;;;-141.84;78.87;19561.84;4747478;30;20227;-60
2022/08/24 01:15:30;;;;;;;8.65;7.78;;;17.20;99.90;;;-141.84;78.08;19557.78;4732731;30;20313;-59
2022/08/24 01:20:56;;;;;;;8.02;7.22;;;17.30;99.90;;;-141.84;79.10;19549.63;4733113;30;20786;-61
2022/08/24 01:23:37;;;;;;;8.73;7.22;;;17.30;99.90;;;-141.84;79.42;19500.88;4732618;29;20344;-59
2022/08/24 01:26:07;;;;;;;9.30;8.30;;;17.20;99.90;;;-141.84;79.10;19563.88;4732749;30;20236;-59
2022/08/24 01:28:39;;;;;;;9.18;8.23;;;17.20;99.90;;;-141.84;79.01;19521.19;4732633;30;20672;-60
2022/08/24 01:31:08;;;;;;;8.38;7.22;;;17.20;99.90;;;-141.84;79.20;19494.78;4735860;30;20752;-59
2022/08/24 01:33:37;;;;;;;8.73;7.90;;;17.10;99.90;;;-141.84;79.17;19509.00;4750430;30;20219;-59
2022/08/24 01:36:20;;;;;;;11.10;7.47;;;17.10;99.90;;;-141.84;79.91;19488.69;4750670;30;20212;-58
2022/08/24 01:39:00;;;;;;;8.20;7.28;;;17.10;99.90;;;-141.84;80.16;19472.41;4749827;30;20240;-60
2022/08/24 01:41:29;;;;;;;7.70;6.93;;;17.00;99.90;;;-141.84;80.85;19435.84;4750099;30;20320;-61
2022/08/24 01:43:58;;;;;;;8.13;7.22;;;17.00;99.90;;;-141.84;81.04;19401.28;4737818;30;20244;-60
2022/08/24 01:46:27;;;;;;;7.68;7.07;;;16.90;99.90;;;-141.84;81.63;19342.34;4732558;30;20318;-60
2022/08/24 01:48:57;;;;;;;8.25;7.57;;;16.90;99.90;;;-141.84;81.63;19389.09;4732222;30;20276;-61
2022/08/24 01:51:30;;;;;;;8.40;7.60;;;16.90;99.90;;;-141.84;82.04;19362.69;4732203;30;20196;-60
2022/08/24 01:54:01;;;;;;;8.75;7.95;;;16.80;99.90;;;-141.84;82.23;19362.69;4732317;30;20236;-59
2022/08/24 01:56:30;;;;;;;8.95;7.57;;;16.80;99.90;;;-141.84;82.05;19342.34;4732229;30;20817;-61
2022/08/24 01:59:01;;;;;;;7.72;7.03;;;16.80;99.90;;;-141.84;81.70;19322.03;4732096;30;20381;-61
2022/08/24 02:01:34;;;;;;;9.60;7.93;;;16.70;99.90;;;-141.84;81.63;19328.13;4738232;30;20243;-60
2022/08/24 02:04:05;;;;;;;8.45;7.60;;;16.70;99.90;;;-141.84;81.22;19342.34;4749723;29;20341;-61
2022/08/24 02:06:37;;;;;;;10.32;8.00;;;16.70;99.90;;;-141.84;81.60;19326.09;4749970;30;20272;-59
2022/08/24 02:09:07;;;;;;;8.63;7.78;;;16.70;99.90;;;-141.84;81.68;19320.00;4750159;30;20641;-59
2022/08/24 02:11:39;;;;;;;9.40;8.52;;;16.70;99.90;;;-141.84;81.19;19313.91;4749670;29;20848;-61
2022/08/24 02:14:07;;;;;;;10.35;8.48;;;16.70;99.90;;;-141.84;80.55;19350.50;4736500;30;20260;-61
2022/08/24 02:16:37;;;;;;;9.38;8.05;;;16.80;99.90;;;-141.84;80.74;19358.63;4732053;30;20236;-61
2022/08/24 02:19:05;;;;;;;8.85;8.05;;;16.80;99.90;;;-141.84;81.19;19297.66;4732419;30;20259;-60
2022/08/24 02:21:34;;;;;;;8.63;7.70;;;16.70;99.90;;;-141.84;81.99;19269.22;4731844;30;20263;-61
2022/08/24 02:24:04;;;;;;;9.05;8.15;;;16.70;99.90;;;-141.84;82.55;19261.06;4732951;30;20225;-60
2022/08/24 02:26:33;;;;;;;10.23;8.40;;;16.60;99.90;;;-141.84;82.92;19236.69;4734778;30;20328;-60
2022/08/24 02:29:01;;;;;;;8.52;7.80;;;16.60;99.90;;;-141.84;82.97;19257.00;4735690;30;20316;-60
2022/08/24 02:31:32;;;;;;;9.13;8.23;;;16.60;99.90;;;-141.84;82.74;19220.44;4741391;30;20244;-60
2022/08/24 02:34:01;;;;;;;9.13;8.02;;;16.60;99.90;;;-141.84;82.58;19261.06;4752731;30;20239;-62
2022/08/24 02:36:30;;;;;;;8.80;8.00;;;16.50;99.90;;;-141.84;82.63;19196.06;4752917;30;20654;-60
2022/08/24 02:38:58;;;;;;;8.90;8.00;;;16.50;99.90;;;-141.84;82.78;19218.41;4753077;30;20220;-60
2022/08/24 02:41:27;;;;;;;8.52;7.82;;;16.50;99.90;;;-141.84;83.31;19175.72;4752635;30;20240;-60
2022/08/24 02:43:57;;;;;;;9.65;8.75;;;16.50;99.90;;;-141.84;83.23;19202.16;4740961;30;20328;-59
2022/08/24 02:46:28;;;;;;;9.48;8.52;;;16.50;99.90;;;-141.84;83.40;19183.84;4735375;30;20245;-60
2022/08/24 02:48:58;;;;;;;11.45;9.48;;;16.50;99.90;;;-141.84;82.81;19181.81;4735383;30;20268;-60
2022/08/24 02:51:41;;;;;;;12.18;9.27;;;16.50;99.90;;;-141.84;82.34;19157.44;4735363;30;22545;-59
2022/08/24 02:54:16;;;;;;;10.85;8.80;;;16.50;99.90;;;-141.84;82.15;19183.84;4735461;30;20193;-60
2022/08/24 02:56:45;;;;;;;9.43;8.60;;;16.50;99.90;;;-141.84;82.22;19165.56;4735159;30;20216;-60
2022/08/24 02:59:15;;;;;;;9.77;8.77;;;16.50;99.90;;;-141.84;82.28;19171.66;4735022;30;20743;-60
2022/08/24 03:01:44;;;;;;;9.00;8.20;;;16.50;99.90;;;-141.84;83.06;19124.94;4742664;30;20367;-60
2022/08/24 03:04:14;;;;;;;8.93;8.13;;;16.50;99.90;;;-141.84;83.53;19129.00;4752623;29;20254;-60
2022/08/24 03:06:43;;;;;;;10.25;9.13;;;16.40;99.90;;;-141.84;83.50;19129.00;4752309;30;20713;-60
2022/08/24 03:09:12;;;;;;;11.32;9.00;;;16.40;99.90;;;-141.84;83.60;19118.84;4752878;30;20677;-59
2022/08/24 03:11:41;;;;;;;10.60;9.50;;;16.40;99.90;;;-141.84;83.52;19151.34;4752315;29;20323;-61
2022/08/24 03:14:13;;;;;;;9.75;8.93;;;16.40;99.90;;;-141.84;83.39;19102.56;4738494;30;20240;-59
2022/08/24 03:16:43;;;;;;;10.50;9.48;;;16.40;99.90;;;-141.84;83.89;19063.97;4734805;30;20316;-60
2022/08/24 03:19:12;;;;;;;10.32;9.35;;;16.40;99.90;;;-141.84;83.55;19092.41;4734852;30;20240;-60
2022/08/24 03:21:40;;;;;;;11.13;10.00;;;16.40;99.90;;;-141.84;82.87;19114.78;4734565;29;20247;-59
2022/08/24 03:24:09;;;;;;;9.90;9.00;;;16.40;99.90;;;-141.84;82.85;19086.31;4735251;30;20237;-60
2022/08/24 03:26:38;;;;;;;10.50;9.50;;;16.40;99.90;;;-141.84;82.79;19082.25;4734614;30;20324;-60
2022/08/24 03:29:11;;;;;;;10.57;9.02;;;16.40;99.90;;;-141.84;82.66;19090.38;4734780;30;20240;-61
2022/08/24 03:31:39;;;;;;;10.02;9.07;;;16.50;99.90;;;-141.84;83.00;19080.22;4741582;30;20240;-60
2022/08/24 03:34:12;;;;;;;10.32;9.25;;;16.40;99.90;;;-141.84;83.04;19076.16;4752325;29;20236;-59
2022/08/24 03:36:45;;;;;;;10.60;9.45;;;16.40;99.90;;;-141.84;82.52;19076.16;4751898;30;20236;-58
2022/08/24 03:39:14;;;;;;;10.68;9.52;;;16.40;99.90;;;-141.84;81.95;19094.44;4752233;30;20259;-60
2022/08/24 03:41:42;;;;;;;10.23;9.23;;;16.40;99.90;;;-141.84;82.05;19086.31;4752091;30;20254;-60
2022/08/24 03:44:10;;;;;;;10.05;9.20;;;16.40;99.90;;;-141.84;81.87;19068.03;4738099;30;20247;-59
2022/08/24 03:46:39;;;;;;;10.00;9.00;;;16.40;99.90;;;-141.84;81.69;19104.59;4734369;30;20740;-61
2022/08/24 03:49:10;;;;;;;9.80;8.52;;;16.40;99.90;;;-141.84;82.41;19053.81;4734332;30;20237;-60
2022/08/24 03:51:39;;;;;;;10.98;9.02;;;16.40;99.90;;;-141.84;82.42;19102.56;4734318;30;20197;-59
2022/08/24 03:54:09;;;;;;;11.07;10.07;;;16.40;99.90;;;-141.84;82.51;19051.78;4734370;30;20754;-59
2022/08/24 03:56:39;;;;;;;10.10;9.20;;;16.30;99.90;;;-141.84;82.74;19055.84;4734241;29;20255;-59
2022/08/24 03:59:09;;;;;;;9.65;8.77;;;16.30;99.90;;;-141.84;82.80;19049.75;4734101;30;20256;-59
2022/08/24 04:01:39;;;;;;;9.80;8.80;;;16.30;99.90;;;-141.84;82.48;19031.47;4740740;30;20246;-61
2022/08/24 04:04:08;;;;;;;9.90;8.95;;;16.30;99.90;;;-141.84;83.15;19017.25;4751736;30;20540;-61
2022/08/24 04:06:37;;;;;;;11.02;9.52;;;16.30;99.90;;;-141.84;83.65;19009.09;4751389;30;20212;-60
2022/08/24 04:09:06;;;;;;;10.52;9.48;;;16.30;99.90;;;-141.84;83.22;19045.69;4751788;30;20304;-59
2022/08/24 04:11:34;;;;;;;10.38;9.32;;;16.20;99.90;;;-141.84;83.21;19013.16;4751199;30;20254;-60
2022/08/24 04:14:08;;;;;;;9.68;8.73;;;16.20;99.90;;;-141.84;83.48;19003.00;4738070;30;20264;-60
2022/08/24 04:16:54;;;;;;;10.40;9.32;;;16.20;99.90;;;-141.84;83.44;18974.56;4733514;30;20332;-61
2022/08/24 04:19:26;;;;;;;10.73;9.15;;;16.20;99.90;;;-141.84;83.88;18980.66;4733707;30;20237;-60
2022/08/24 04:21:57;;;;;;;10.63;9.52;;;16.20;99.90;;;-141.84;84.34;18960.34;4733270;30;20298;-61
2022/08/24 04:24:27;;;;;;;10.10;9.20;;;16.20;99.90;;;-141.84;84.46;18944.09;4733654;30;20219;-58
2022/08/24 04:26:55;;;;;;;10.43;9.27;;;16.20;99.90;;;-141.84;84.64;18954.25;4733800;30;20311;-59
2022/08/24 04:29:24;;;;;;;9.93;8.57;;;16.20;99.90;;;-141.84;83.46;18948.16;4733393;30;20316;-60
2022/08/24 04:31:53;;;;;;;9.85;8.90;;;16.20;99.90;;;-141.84;82.53;19013.16;4742048;30;20323;-61
2022/08/24 04:34:21;;;;;;;9.75;8.82;;;16.30;99.90;;;-141.84;82.19;19033.50;4751100;30;20236;-61
2022/08/24 04:36:50;;;;;;;9.40;8.32;;;16.40;99.90;;;-141.84;82.12;19021.31;4750910;30;20235;-60
2022/08/24 04:39:19;;;;;;;11.32;10.07;;;16.40;99.90;;;-141.84;82.32;19003.00;4750737;30;20220;-60
2022/08/24 04:41:47;;;;;;;12.23;9.60;;;16.40;99.90;;;-141.84;82.66;18960.34;4751152;30;20707;-58
2022/08/24 04:44:17;;;;;;;10.02;9.10;;;16.40;99.90;;;-141.84;83.37;18960.34;4736227;30;20760;-60
2022/08/24 04:46:45;;;;;;;9.75;8.75;;;16.40;99.90;;;-141.84;83.79;18956.28;4733277;30;20298;-61
2022/08/24 04:49:14;;;;;;;9.70;8.80;;;16.40;99.90;;;-141.84;84.04;18954.25;4732529;30;20750;-59
2022/08/24 04:51:42;;;;;;;11.57;10.32;;;16.50;99.90;;;-141.84;84.17;18931.91;4733131;30;20232;-59
2022/08/24 04:54:11;;;;;;;10.43;9.43;;;16.50;99.90;;;-141.84;84.25;18940.03;4733571;30;20299;-59
2022/08/24 04:56:40;;;;;;;10.68;8.38;;;16.50;99.90;;;-141.84;83.98;18935.97;4733230;30;20724;-59
2022/08/24 04:59:08;;;;;;;10.73;9.07;;;16.60;99.90;;;-141.84;83.38;18948.16;4732847;30;20233;-60
2022/08/24 05:01:36;;;;;;;10.85;9.18;;;16.70;99.90;;;-141.84;82.39;18984.72;4739499;30;20244;-60
2022/08/24 05:04:05;;;;;;;10.63;9.10;;;16.70;99.90;;;-141.84;81.59;18988.78;4750510;30;20236;-59
2022/08/24 05:06:34;;;;;;;10.93;8.77;;;16.80;99.90;;;-141.84;81.38;19027.41;4750345;30;20455;-59
2022/08/24 05:09:04;;;;;;;9.68;8.43;;;16.90;99.90;;;-141.84;81.53;19011.13;4750618;30;20204;-61
2022/08/24 05:11:38;;;;;;;10.50;9.32;;;16.90;99.90;;;-141.84;81.12;19015.19;4750357;30;20247;-59
2022/08/24 05:14:07;;;;;;;10.13;9.13;;;17.00;99.90;;;-141.84;80.81;19021.31;4737233;30;20670;-58
2022/08/24 05:16:38;;;;;;;10.10;9.10;;;17.10;99.90;;;-141.84;80.02;19059.91;4732757;30;20237;-59
2022/08/24 05:19:12;;;;;;;11.48;9.15;;;17.20;99.90;;;-141.84;78.94;19126.97;4732593;30;20274;-59
2022/08/24 05:21:43;;;;;;;9.38;8.55;;;17.40;99.90;;;-141.84;78.25;19163.53;4732825;30;20237;-59
2022/08/24 05:24:11;;;;;;;12.00;9.65;;;17.60;99.90;;;-141.84;76.70;19240.75;4733007;30;20219;-59
2022/08/24 05:26:40;;;;;;;10.55;9.50;;;17.90;99.90;;;-141.84;75.66;19305.78;4732580;30;20245;-58
2022/08/24 05:29:09;;;;;;;10.90;8.93;;;18.00;99.90;;;-141.84;74.87;19350.50;4733064;30;20284;-59
2022/08/24 05:31:38;;;;;;;10.00;8.95;;;18.30;99.90;;;-141.84;74.50;19362.69;4740096;30;20760;-58
2022/08/24 05:34:06;;;;;;;9.50;8.60;;;18.40;99.90;;;-141.84;73.83;19439.91;4751018;30;20318;-59
2022/08/24 05:36:38;;;;;;;9.15;8.25;;;18.70;99.90;;;-141.84;72.84;19504.94;4751310;30;20222;-59
2022/08/24 05:39:09;;;;;;;10.40;9.30;;;18.90;99.90;;;-141.84;71.65;19539.47;4751450;30;20323;-60
2022/08/24 05:41:41;;;;;;;10.40;9.50;;;19.10;99.90;;;-141.84;70.97;19594.34;4750863;30;20661;-59
2022/08/24 05:44:13;;;;;;;10.63;9.63;;;19.20;99.90;;;-141.84;69.71;19710.19;4736976;30;20319;-59
2022/08/24 05:46:41;;;;;;;10.73;9.57;;;19.40;99.90;;;-141.84;69.85;19734.56;4733306;30;20232;-59
2022/08/24 05:49:11;;;;;;;11.60;10.32;;;19.50;99.90;;;-141.84;69.44;19777.25;4733127;30;20241;-59
2022/08/24 05:51:41;;;;;;;13.80;10.85;;;19.70;99.90;;;-141.84;69.07;19815.88;4733117;30;20243;-59
2022/08/24 05:54:10;;;;;;;11.93;10.73;;;19.80;99.90;;;-141.84;67.57;19891.06;4733281;30;20219;-60
2022/08/24 05:56:39;;;;;;;12.95;10.38;;;19.90;99.90;;;-141.84;67.65;19887.00;4733034;30;20244;-59
2022/08/24 05:59:08;;;;;;;12.90;10.10;;;19.90;99.90;;;-141.84;68.18;19880.91;4732916;30;20332;-59
2022/08/24 06:01:37;;;;;;;11.45;10.27;;;19.90;99.90;;;-141.84;68.24;19895.13;4739775;30;20683;-60
2022/08/24 06:04:10;;;;;;;12.90;10.18;;;19.90;99.90;;;-141.84;67.81;19905.28;4750571;29;20248;-59
2022/08/24 06:06:38;;;;;;;14.10;10.70;;;20.00;99.90;;;-141.84;66.96;19974.41;4750621;30;20262;-59
2022/08/24 06:09:07;;;;;;;12.15;10.90;;;20.10;99.90;;;-141.84;67.43;19986.59;4750716;30;20208;-59
2022/08/24 06:11:40;;;;;;;16.73;10.45;;;20.20;99.90;;;-141.84;67.87;19968.31;4750329;29;20244;-61
2022/08/24 06:14:11;;;;;;;12.85;11.63;;;20.10;99.90;;;-141.84;67.68;20004.88;4737144;30;20761;-59
2022/08/24 06:16:45;;;;;;;12.55;11.25;;;20.20;99.90;;;-141.84;67.88;19996.75;4733132;30;20240;-59
2022/08/24 06:19:18;;;;;;;13.30;10.98;;;20.20;99.90;;;-141.84;67.14;20019.13;4732943;30;20243;-59
2022/08/24 06:21:50;;;;;;;11.95;10.73;;;20.30;99.90;;;-141.84;66.85;20055.69;4732863;30;20228;-60
2022/08/24 06:27:19;;;;;;;12.57;11.38;;;20.40;99.90;;;-141.84;66.70;20065.84;4715875;30;20274;-60
2022/08/24 06:27:20;;;;;;;13.82;12.00;;;20.50;99.90;;;-141.84;66.58;20059.75;4714003;30;20236;-59
2022/08/24 06:29:49;;;;;;;11.63;10.43;;;20.70;99.90;;;-141.84;66.58;20088.22;4715710;30;20257;-60
2022/08/24 06:32:17;;;;;;;12.85;10.85;;;20.60;99.90;;;-141.84;67.10;20102.44;4727026;30;20809;-59
2022/08/24 06:34:46;;;;;;;12.48;11.27;;;20.60;99.90;;;-141.84;66.10;20114.63;4732548;30;20721;-60
2022/08/24 06:37:15;;;;;;;12.48;11.18;;;20.60;99.90;;;-141.84;66.35;20128.88;4732676;30;20241;-61
2022/08/24 06:39:44;;;;;;;12.63;11.38;;;20.60;99.90;;;-141.84;66.70;20102.44;4732692;30;20237;-59
2022/08/24 06:42:13;;;;;;;10.95;9.95;;;20.70;99.90;;;-141.84;66.42;20134.97;4733415;30;20636;-59
2022/08/24 06:44:43;;;;;;;12.68;10.52;;;20.70;99.90;;;-141.84;65.93;20159.34;4732488;30;20240;-59
2022/08/24 06:47:11;;;;;;;11.48;9.73;;;20.80;99.90;;;-141.84;65.98;20171.56;4732617;30;20312;-60
2022/08/24 06:49:39;;;;;;;10.90;9.80;;;20.70;99.90;;;-141.84;65.74;20181.72;4732710;30;20236;-59
2022/08/24 06:52:08;;;;;;;11.30;9.20;;;20.80;99.90;;;-141.84;66.02;20155.28;4732614;30;20323;-59
2022/08/24 06:54:37;;;;;;;10.13;9.15;;;20.70;99.90;;;-141.84;66.74;20114.63;4732563;30;20308;-59
2022/08/24 06:57:05;;;;;;;10.50;9.40;;;20.70;99.90;;;-141.84;67.05;20118.69;4733078;30;20209;-60
2022/08/24 06:59:35;;;;;;;10.13;9.13;;;20.70;99.90;;;-141.84;66.90;20110.56;4732562;30;20244;-60
2022/08/24 07:02:03;;;;;;;10.27;9.27;;;20.70;99.90;;;-141.84;66.73;20126.84;4742547;30;20260;-59
2022/08/24 07:04:33;;;;;;;11.35;10.15;;;20.70;99.90;;;-141.84;66.29;20171.56;4750022;29;20252;-59
2022/08/24 07:07:01;;;;;;;11.13;9.32;;;20.70;99.90;;;-141.84;66.67;20155.28;4750152;30;20251;-59
2022/08/24 07:09:32;;;;;;;11.93;9.60;;;20.70;99.90;;;-141.84;65.97;20167.47;4749849;29;20340;-59
2022/08/24 07:12:00;;;;;;;11.43;10.32;;;20.70;99.90;;;-141.84;66.86;20090.25;4752040;30;20548;-59
2022/08/24 07:14:28;;;;;;;8.98;8.10;;;20.80;99.90;;;-141.84;66.96;20132.94;4737110;30;20244;-59
2022/08/24 07:16:58;;;;;;;9.55;8.65;;;20.70;99.90;;;-141.84;66.35;20171.56;4735583;30;20506;-59
2022/08/24 07:19:26;;;;;;;11.45;8.98;;;20.80;99.90;;;-141.84;66.23;20183.75;4735377;30;20263;-59
2022/08/24 07:21:57;;;;;;;11.38;10.18;;;20.80;99.90;;;-141.84;66.38;20167.47;4735609;30;20336;-60
2022/08/24 07:24:25;;;;;;;9.60;8.40;;;20.90;99.90;;;-141.84;66.75;20171.56;4735090;29;20647;-59
2022/08/24 07:26:54;;;;;;;9.23;8.32;;;20.90;99.90;;;-141.84;66.54;20191.88;4735835;30;20228;-58
2022/08/24 07:29:22;;;;;;;10.52;9.13;;;21.00;99.90;;;-141.84;65.89;20216.25;4735176;30;20241;-59
2022/08/24 07:32:12;;;;;;;9.40;7.65;;;21.00;99.90;;;-141.84;65.93;20258.94;4746314;30;20328;-60
2022/08/24 07:34:40;;;;;;;7.85;7.15;;;21.10;99.90;;;-141.84;65.91;20250.81;4752934;29;20264;-60
2022/08/24 07:37:08;;;;;;;9.40;8.23;;;21.10;99.90;;;-141.84;65.05;20305.69;4752650;30;20236;-58
2022/08/24 07:39:36;;;;;;;11.88;7.55;;;21.30;99.90;;;-141.84;65.11;20297.56;4752784;30;20389;-59
2022/08/24 07:42:05;;;;;;;8.00;7.20;;;21.40;99.90;;;-141.84;64.76;20332.13;4753323;30;20333;-58
2022/08/24 07:44:40;;;;;;;11.07;7.72;;;21.40;99.90;;;-141.84;64.90;20391.06;4734999;30;20565;-58
2022/08/24 07:47:09;;;;;;;8.23;7.43;;;21.40;99.90;;;-141.84;64.49;20380.91;4734763;30;20263;-59
2022/08/24 07:49:58;;;;;;;9.73;7.10;;;21.50;99.90;;;-141.84;64.33;20403.25;4734722;30;20232;-60
2022/08/24 07:52:27;;;;;;;10.30;7.30;;;21.60;99.90;;;-141.84;64.51;20419.53;4734370;30;20229;-60
2022/08/24 07:54:56;;;;;;;8.55;7.57;;;21.70;99.90;;;-141.84;63.78;20441.88;4734007;30;20236;-57
2022/08/24 07:57:24;;;;;;;9.75;6.90;;;21.80;99.90;;;-141.84;64.01;20472.38;4734825;30;20236;-60
2022/08/24 07:59:55;;;;;;;8.68;6.68;;;21.80;99.90;;;-141.84;63.24;20480.50;4735031;30;20220;-60
2022/08/24 08:02:23;;;;;;;7.53;6.75;;;21.90;99.90;;;-141.84;62.98;20513.03;4746926;30;20235;-59
2022/08/24 08:04:58;;;;;;;8.40;7.30;;;21.90;99.90;;;-141.84;63.21;20492.72;4752207;30;20319;-60
2022/08/24 08:07:29;;;;;;;9.10;6.80;;;21.90;99.90;;;-141.84;63.61;20502.88;4751717;30;20302;-59
2022/08/24 08:10:00;;;;;;;7.13;6.40;;;21.90;99.90;;;-141.84;63.44;20517.09;4752011;30;20236;-59
2022/08/24 08:12:28;;;;;;;7.75;6.85;;;21.90;99.90;;;-141.84;62.63;20569.94;4751093;30;20200;-60
2022/08/24 08:14:57;;;;;;;8.13;7.13;;;22.00;99.90;;;-141.84;62.34;20606.53;4734794;30;20216;-61
2022/08/24 08:17:25;;;;;;;9.05;6.45;;;22.10;99.90;;;-141.84;62.43;20600.44;4734074;30;20335;-59
2022/08/24 08:19:54;;;;;;;8.10;7.30;;;22.10;99.90;;;-141.84;61.48;20635.00;4734191;30;20240;-59
2022/08/24 08:25:09;;;;;;;7.43;6.72;;;22.30;99.90;;;-141.84;61.20;20710.22;4732938;30;20250;-62
2022/08/24 08:27:37;;;;;;;8.13;6.53;;;22.30;99.90;;;-141.84;61.05;20716.31;4732448;30;20316;-58
2022/08/24 08:30:08;;;;;;;10.18;6.97;;;22.40;99.90;;;-141.84;60.68;20738.66;4734119;30;20274;-58
2022/08/24 08:32:36;;;;;;;9.38;6.57;;;22.50;99.90;;;-141.84;60.09;20777.28;4746858;30;20235;-61
2022/08/24 08:35:05;;;;;;;8.63;6.35;;;22.50;99.90;;;-141.84;60.16;20824.06;4751303;30;20240;-60
2022/08/24 08:37:35;;;;;;;7.82;6.65;;;22.60;99.90;;;-141.84;59.67;20864.72;4750547;30;20235;-62
2022/08/24 08:40:24;;;;;;;6.95;6.25;;;22.70;99.90;;;-141.84;59.64;20858.59;4750692;30;20295;-60
2022/08/24 08:43:06;;;;;;;9.15;6.88;;;22.80;99.90;;;-141.84;59.19;20941.97;4746598;30;20671;-60
2022/08/24 08:46:01;;;;;;;6.70;6.10;;;22.80;99.90;;;-141.84;59.14;20958.22;4733460;30;20207;-60
2022/08/24 08:49:19;;;;;;;7.63;5.72;;;22.90;99.90;;;-141.84;58.65;21004.97;4733174;30;20235;-59
2022/08/24 08:52:32;;;;;;;6.68;6.07;;;23.10;99.90;;;-141.84;57.47;21110.69;4733031;30;20237;-61
2022/08/24 08:55:26;;;;;;;7.40;6.22;;;23.30;99.90;;;-141.84;57.41;21228.63;4732112;30;20244;-59
2022/08/24 08:58:10;;;;;;;6.13;5.53;;;23.40;99.90;;;-141.84;55.54;21285.53;4732912;30;20324;-59
2022/08/24 09:01:00;;;;;;;6.57;4.97;;;23.70;99.90;;;-141.84;55.06;21265.22;4733234;30;20251;-59
2022/08/24 09:04:08;;;;;;;8.70;4.90;;;23.70;99.90;;;-141.84;54.69;21362.81;4715648;30;20198;-59
2022/08/24 09:07:08;;;;;;;5.60;5.03;;;23.80;99.90;;;-141.84;53.59;21440.06;4715357;30;20245;-60
2022/08/24 09:10:18;;;;;;;6.82;5.55;;;24.00;99.90;;;-141.84;53.02;21553.94;4716070;30;20201;-60
2022/08/24 09:13:08;;;;;;;6.35;5.57;;;24.30;99.90;;;-141.84;52.66;21586.47;4719764;30;20240;-59
2022/08/24 09:15:58;;;;;;;6.50;5.80;;;24.40;99.90;;;-141.84;52.67;21619.00;4733459;30;20292;-59
2022/08/24 09:18:44;;;;;;;5.80;5.25;;;24.60;99.90;;;-141.84;52.80;21578.31;4733768;30;20197;-59
2022/08/24 09:21:36;;;;;;;7.43;5.10;;;24.70;99.90;;;-141.84;52.02;21651.53;4734067;30;20284;-60
2022/08/24 09:24:38;;;;;;;6.82;5.18;;;24.80;99.90;;;-141.84;50.45;21797.94;4732186;30;20232;-59
2022/08/24 09:27:25;;;;;;;4.70;4.28;;;25.00;99.90;;;-141.84;50.56;21755.22;4732222;30;20240;-59
2022/08/24 09:30:09;;;;;;;5.90;4.43;;;24.80;99.90;;;-141.84;50.14;21795.88;4733903;30;20216;-58
2022/08/24 09:33:06;;;;;;;4.97;4.47;;;25.00;99.90;;;-141.84;49.61;21836.56;4747379;30;20331;-59
2022/08/24 09:36:04;;;;;;;4.82;4.35;;;25.10;99.90;;;-141.84;50.55;21767.44;4750546;30;20236;-58
2022/08/24 09:38:57;;;;;;;6.32;4.00;;;24.90;99.90;;;-141.84;49.97;21793.84;4750493;30;20670;-59
2022/08/24 09:42:31;;;;;;;8.07;4.55;;;24.90;99.90;;;-141.84;50.64;21773.53;4750883;30;20235;-58
2022/08/24 09:45:53;;;;;;;5.65;4.57;;;24.80;99.90;;;-141.84;50.40;21781.66;4714127;30;20239;-58
2022/08/24 09:49:13;;;;;;;4.30;3.97;;;24.80;99.90;;;-141.84;50.81;21675.94;4712247;30;20340;-59
2022/08/24 09:52:30;;;;;;;5.25;3.80;;;24.60;99.90;;;-141.84;50.67;21698.28;4720289;29;20320;-60
2022/08/24 09:55:42;;;;;;;4.70;3.92;;;24.60;99.90;;;-141.84;51.35;21639.31;4750318;30;20744;-59
2022/08/24 09:58:30;;;;;;;5.43;4.03;;;24.30;99.90;;;-141.84;51.14;21724.72;4750411;30;20308;-59
2022/08/24 10:01:11;;;;;;;5.35;3.88;;;24.40;99.90;;;-141.84;49.19;21773.53;4750509;30;20679;-59
2022/08/24 10:04:20;;;;;;;5.00;3.88;;;24.50;99.90;;;-141.84;49.62;21761.31;4748996;29;20235;-57
2022/08/24 10:07:04;;;;;;;4.97;3.55;;;24.60;99.90;;;-141.84;49.61;21797.94;4733103;30;20233;-59
2022/08/24 10:10:11;;;;;;;3.53;3.22;;;24.60;99.90;;;-141.84;47.99;21846.72;4733202;30;20579;-59
2022/08/24 10:12:58;;;;;;;4.00;3.60;;;24.70;99.90;;;-141.84;47.86;21911.78;4733005;30;20276;-60
2022/08/24 10:15:35;;;;;;;3.97;3.28;;;24.90;99.90;;;-141.84;47.38;21972.81;4749643;29;20287;-59
2022/08/24 10:18:25;;;;;;;3.75;3.45;;;25.00;99.90;;;-141.84;47.35;22007.38;4750602;30;20548;-58
2022/08/24 10:21:13;;;;;;;3.65;3.33;;;25.20;99.90;;;-141.84;46.93;21985.00;4750534;30;20664;-60
2022/08/24 10:24:06;;;;;;;3.75;3.25;;;25.20;99.90;;;-141.84;46.57;22029.75;4749870;30;20235;-59
2022/08/24 10:27:08;;;;;;;4.25;3.50;;;25.20;99.90;;;-141.84;47.45;21985.00;4750086;29;20235;-57
2022/08/24 10:30:20;;;;;;;4.05;3.35;;;25.10;99.90;;;-141.84;47.25;21974.84;4750061;30;20246;-59
2022/08/24 10:33:15;;;;;;;4.28;3.88;;;25.10;99.90;;;-141.84;47.93;21997.19;4715749;30;20611;-60
2022/08/24 10:36:14;;;;;;;4.47;3.78;;;25.20;99.90;;;-141.84;47.61;21995.16;4732396;30;20788;-60
2022/08/24 10:46:19;;;;;;;3.78;3.38;;;25.40;99.90;;;-141.84;46.88;22070.41;4716113;30;20332;-60
2022/08/24 10:49:48;;;;;;;4.78;3.70;;;25.50;99.90;;;-141.84;46.48;22137.50;4735887;30;20324;-61